createdAt,value
2018-08-10T00:00:03.217Z,23.70
2018-08-10T00:02:31.595Z,23.70
2018-08-10T00:04:59.930Z,23.70
2018-08-10T00:07:28.256Z,23.70
2018-08-10T00:09:56.595Z,23.70
2018-08-10T00:12:25.019Z,23.70
2018-08-10T00:14:53.339Z,23.70
2018-08-10T00:17:21.716Z,23.70
2018-08-10T00:19:50.059Z,23.70
2018-08-10T00:22:18.365Z,23.70
2018-08-10T00:24:46.726Z,23.70
2018-08-10T00:27:15.067Z,23.70
2018-08-10T00:29:43.458Z,23.60
2018-08-10T00:32:11.746Z,23.60
2018-08-10T00:34:40.070Z,23.60
2018-08-10T00:37:08.376Z,23.60
2018-08-10T00:39:36.670Z,23.60
2018-08-10T00:42:05.065Z,23.60
2018-08-10T00:44:33.395Z,23.60
2018-08-10T00:47:01.706Z,23.70
2018-08-10T00:49:30.013Z,23.60
2018-08-10T00:51:58.347Z,23.70
2018-08-10T00:54:26.640Z,23.60
2018-08-10T00:56:54.911Z,23.70
2018-08-10T00:59:23.305Z,23.70
2018-08-10T01:01:51.607Z,23.70
2018-08-10T01:04:20.200Z,23.60
2018-08-10T01:06:48.476Z,23.60
2018-08-10T01:09:16.797Z,23.60
2018-08-10T01:11:45.085Z,23.60
2018-08-10T01:14:13.409Z,23.60
2018-08-10T01:16:41.691Z,23.60
2018-08-10T01:19:10.043Z,23.60
2018-08-10T01:21:38.318Z,23.60
2018-08-10T01:24:06.607Z,23.60
2018-08-10T01:26:34.903Z,23.60
2018-08-10T01:29:03.308Z,23.60
2018-08-10T01:31:31.525Z,23.60
2018-08-10T01:33:59.837Z,23.60
2018-08-10T01:36:28.159Z,23.60
2018-08-10T01:38:56.428Z,23.60
2018-08-10T01:41:24.744Z,23.60
2018-08-10T01:43:53.100Z,23.60
2018-08-10T01:46:21.435Z,23.60
2018-08-10T01:48:49.845Z,23.60
2018-08-10T01:51:18.156Z,23.60
2018-08-10T01:53:46.433Z,23.60
2018-08-10T01:56:14.749Z,23.60
2018-08-10T01:58:43.031Z,23.60
2018-08-10T02:01:11.361Z,23.60
2018-08-10T02:03:39.783Z,23.60
2018-08-10T02:06:08.064Z,23.60
2018-08-10T02:08:36.380Z,23.60
2018-08-10T02:11:04.741Z,23.50
2018-08-10T02:13:33.069Z,23.60
2018-08-10T02:16:01.395Z,23.60
2018-08-10T02:18:29.700Z,23.60
2018-08-10T02:20:58.041Z,23.60
2018-08-10T02:23:26.426Z,23.60
2018-08-10T02:25:54.812Z,23.60
2018-08-10T02:28:23.146Z,23.60
2018-08-10T02:30:51.528Z,23.60
2018-08-10T02:33:19.828Z,23.60
2018-08-10T02:35:48.196Z,23.60
2018-08-10T02:38:16.596Z,23.60
2018-08-10T02:40:44.874Z,23.60
2018-08-10T02:43:13.239Z,23.60
2018-08-10T02:45:41.515Z,23.60
2018-08-10T02:48:09.818Z,23.60
2018-08-10T02:50:38.182Z,23.60
2018-08-10T02:53:06.518Z,23.60
2018-08-10T02:55:34.815Z,23.50
2018-08-10T02:58:03.133Z,23.60
2018-08-10T03:00:31.503Z,23.60
2018-08-10T03:02:59.810Z,23.50
2018-08-10T03:05:28.155Z,23.50
2018-08-10T03:07:56.458Z,23.50
2018-08-10T03:10:24.744Z,23.50
2018-08-10T03:12:53.140Z,23.50
2018-08-10T03:15:21.489Z,23.50
2018-08-10T03:17:49.807Z,23.50
2018-08-10T03:20:18.127Z,23.50
2018-08-10T03:22:46.438Z,23.50
2018-08-10T03:25:15.347Z,23.50
2018-08-10T03:27:43.717Z,23.50
2018-08-10T03:30:12.892Z,23.50
2018-08-10T03:32:41.229Z,23.50
2018-08-10T03:35:09.528Z,23.50
2018-08-10T03:37:38.426Z,23.50
2018-08-10T03:40:08.931Z,23.50
2018-08-10T03:42:37.210Z,23.50
2018-08-10T03:45:05.871Z,23.50
2018-08-10T03:47:34.166Z,23.50
2018-08-10T03:50:02.573Z,23.50
2018-08-10T03:52:30.928Z,23.50
2018-08-10T03:54:59.241Z,23.50
2018-08-10T03:57:27.613Z,23.50
2018-08-10T03:59:56.912Z,23.50
2018-08-10T04:02:25.178Z,23.50
2018-08-10T04:04:53.514Z,23.50
2018-08-10T04:07:21.774Z,23.50
2018-08-10T04:09:50.105Z,23.50
2018-08-10T04:12:18.391Z,23.50
2018-08-10T04:14:46.671Z,23.50
2018-08-10T04:17:24.698Z,23.50
2018-08-10T04:19:53.962Z,23.50
2018-08-10T04:22:22.886Z,23.50
2018-08-10T04:24:51.678Z,23.50
2018-08-10T04:27:20.247Z,23.50
2018-08-10T04:29:48.943Z,23.50
2018-08-10T04:32:17.219Z,23.50
2018-08-10T04:34:45.541Z,23.40
2018-08-10T04:37:13.848Z,23.40
2018-08-10T04:39:42.139Z,23.50
2018-08-10T04:42:10.474Z,23.40
2018-08-10T04:44:38.748Z,23.40
2018-08-10T04:47:07.087Z,23.40
2018-08-10T04:49:35.430Z,23.40
2018-08-10T04:52:03.715Z,23.40
2018-08-10T04:54:32.085Z,23.50
2018-08-10T04:57:00.470Z,23.40
2018-08-10T04:59:28.756Z,23.40
2018-08-10T05:01:57.099Z,23.40
2018-08-10T05:04:25.423Z,23.40
2018-08-10T05:06:53.946Z,23.40
2018-08-10T05:09:22.241Z,23.40
2018-08-10T05:11:50.502Z,23.40
2018-08-10T05:14:18.802Z,23.40
2018-08-10T05:16:47.160Z,23.40
2018-08-10T05:19:15.431Z,23.40
2018-08-10T05:21:43.774Z,23.40
2018-08-10T05:24:12.097Z,23.40
2018-08-10T05:26:40.384Z,23.50
2018-08-10T05:29:08.699Z,23.40
2018-08-10T05:31:37.065Z,23.40
2018-08-10T05:34:05.390Z,23.40
2018-08-10T05:36:33.758Z,23.40
2018-08-10T05:39:02.124Z,23.40
2018-08-10T05:41:30.503Z,23.40
2018-08-10T05:43:58.835Z,23.50
2018-08-10T05:46:27.142Z,23.50
2018-08-10T05:48:55.454Z,23.50
2018-08-10T05:51:23.768Z,23.50
2018-08-10T05:53:52.902Z,23.50
2018-08-10T05:56:21.202Z,23.50
2018-08-10T05:58:49.610Z,23.50
2018-08-10T06:01:18.002Z,23.50
2018-08-10T06:03:46.352Z,23.50
2018-08-10T06:06:14.634Z,23.50
2018-08-10T06:08:42.991Z,23.50
2018-08-10T06:11:11.289Z,23.50
2018-08-10T06:13:39.642Z,23.60
2018-08-10T06:16:07.946Z,23.50
2018-08-10T06:18:36.284Z,23.50
2018-08-10T06:21:07.566Z,23.60
2018-08-10T06:23:35.894Z,23.60
2018-08-10T06:26:04.294Z,23.60
2018-08-10T06:28:32.808Z,23.60
2018-08-10T06:31:01.538Z,23.70
2018-08-10T06:33:31.019Z,23.70
2018-08-10T06:35:59.857Z,23.70
2018-08-10T06:38:28.162Z,23.70
2018-08-10T06:40:56.620Z,23.70
2018-08-10T06:43:25.503Z,23.70
2018-08-10T06:45:53.802Z,23.80
2018-08-10T06:48:22.841Z,23.80
2018-08-10T06:50:52.299Z,23.80
2018-08-10T06:53:20.822Z,23.80
2018-08-10T06:55:49.347Z,23.90
2018-08-10T06:58:17.660Z,23.90
2018-08-10T07:00:46.036Z,23.90
2018-08-10T07:03:14.508Z,23.90
2018-08-10T07:05:43.010Z,23.90
2018-08-10T07:08:12.019Z,23.90
2018-08-10T07:10:40.327Z,23.90
2018-08-10T07:13:09.348Z,23.90
2018-08-10T07:15:37.762Z,24.00
2018-08-10T07:18:06.058Z,24.00
2018-08-10T07:20:35.334Z,24.00
2018-08-10T07:23:03.878Z,24.00
2018-08-10T07:25:32.279Z,24.10
2018-08-10T07:28:00.677Z,24.10
2018-08-10T07:30:28.938Z,24.10
2018-08-10T07:32:57.279Z,24.10
2018-08-10T07:35:25.555Z,24.20
2018-08-10T07:37:53.865Z,24.20
2018-08-10T07:40:22.172Z,24.20
2018-08-10T07:42:50.463Z,24.10
2018-08-10T07:45:18.742Z,24.20
2018-08-10T07:47:46.998Z,24.20
2018-08-10T07:50:15.315Z,24.20
2018-08-10T07:52:43.582Z,24.20
2018-08-10T07:55:11.912Z,24.20
2018-08-10T07:57:40.354Z,24.20
2018-08-10T08:00:09.019Z,24.20
2018-08-10T08:02:38.090Z,24.20
2018-08-10T08:05:06.739Z,24.20
2018-08-10T08:07:34.994Z,24.10
2018-08-10T08:10:03.362Z,24.10
2018-08-10T08:12:31.619Z,24.10
2018-08-10T08:14:59.963Z,24.10
2018-08-10T08:17:28.237Z,24.10
2018-08-10T08:19:56.682Z,24.20
2018-08-10T08:22:24.967Z,24.20
2018-08-10T08:24:53.268Z,24.20
2018-08-10T08:27:21.668Z,24.20
2018-08-10T08:29:50.012Z,24.20
2018-08-10T08:32:18.316Z,24.20
2018-08-10T08:34:46.650Z,24.20
2018-08-10T08:37:14.956Z,24.20
2018-08-10T08:39:56.315Z,24.20
2018-08-10T08:42:24.573Z,24.20
2018-08-10T08:46:07.954Z,24.20
2018-08-10T08:48:37.703Z,24.20
2018-08-10T08:51:08.748Z,24.20
2018-08-10T08:53:37.089Z,24.30
2018-08-10T08:56:06.723Z,24.20
2018-08-10T08:58:35.741Z,24.30
2018-08-10T09:01:04.699Z,24.30
2018-08-10T09:03:44.615Z,24.30
2018-08-10T09:06:12.908Z,24.30
2018-08-10T09:08:54.655Z,24.30
2018-08-10T09:11:22.996Z,24.30
2018-08-10T09:15:07.203Z,24.30
2018-08-10T09:17:35.587Z,24.30
2018-08-10T09:20:04.821Z,24.40
2018-08-10T09:22:33.175Z,24.40
2018-08-10T09:25:01.479Z,24.40
2018-08-10T09:27:29.770Z,24.40
2018-08-10T09:29:58.051Z,24.50
2018-08-10T09:32:26.382Z,24.50
2018-08-10T09:34:54.689Z,24.50
2018-08-10T09:37:23.030Z,24.50
2018-08-10T09:39:51.333Z,24.50
2018-08-10T09:42:19.751Z,24.50
2018-08-10T09:44:48.026Z,24.50
2018-08-10T09:47:16.315Z,24.50
2018-08-10T09:49:46.920Z,24.50
2018-08-10T09:52:15.189Z,24.40
2018-08-10T09:55:36.115Z,24.10
2018-08-10T09:58:09.016Z,24.00
2018-08-10T10:00:42.715Z,23.90
2018-08-10T10:03:16.608Z,23.90
2018-08-10T10:05:45.320Z,23.90
2018-08-10T10:08:13.872Z,23.90
2018-08-10T10:10:42.291Z,23.80
2018-08-10T10:13:10.559Z,23.80
2018-08-10T10:15:38.863Z,23.80
2018-08-10T10:18:08.816Z,23.80
2018-08-10T10:20:37.155Z,23.70
2018-08-10T10:23:05.776Z,23.70
2018-08-10T10:25:34.228Z,23.70
2018-08-10T10:28:02.504Z,23.60
2018-08-10T10:30:30.943Z,23.40
2018-08-10T10:32:59.319Z,23.40
2018-08-10T10:35:27.668Z,23.30
2018-08-10T10:37:55.964Z,23.40
2018-08-10T10:40:24.317Z,23.50
2018-08-10T10:42:52.620Z,23.50
2018-08-10T10:45:20.947Z,23.60
2018-08-10T10:47:49.399Z,23.50
2018-08-10T10:50:18.580Z,23.50
2018-08-10T10:52:46.856Z,23.60
2018-08-10T10:55:15.238Z,23.50
2018-08-10T10:57:44.149Z,23.50
2018-08-10T11:00:15.198Z,23.40
2018-08-10T11:02:43.754Z,23.40
2018-08-10T11:05:12.058Z,23.50
2018-08-10T11:07:40.399Z,23.60
2018-08-10T11:10:10.335Z,23.60
2018-08-10T11:12:39.002Z,23.70
2018-08-10T11:15:08.398Z,23.80
2018-08-10T11:17:36.775Z,23.80
2018-08-10T11:20:06.074Z,23.80
2018-08-10T11:22:34.366Z,23.80
2018-08-10T11:25:02.722Z,23.90
2018-08-10T11:27:31.102Z,23.90
2018-08-10T11:29:59.412Z,23.90
2018-08-10T11:32:27.740Z,23.90
2018-08-10T11:34:56.023Z,23.90
2018-08-10T11:37:24.399Z,23.80
2018-08-10T11:39:52.671Z,23.80
2018-08-10T11:42:21.171Z,23.80
2018-08-10T11:44:49.505Z,23.70
2018-08-10T11:47:17.765Z,23.70
2018-08-10T11:49:46.104Z,23.70
2018-08-10T11:52:14.374Z,23.70
2018-08-10T11:54:42.709Z,23.80
2018-08-10T11:57:10.994Z,23.80
2018-08-10T11:59:39.468Z,23.90
2018-08-10T12:02:07.956Z,23.90
2018-08-10T12:04:36.250Z,23.90
2018-08-10T12:07:04.774Z,23.90
2018-08-10T12:09:33.057Z,23.80
2018-08-10T12:12:01.352Z,24.00
2018-08-10T12:14:29.634Z,24.10
2018-08-10T12:16:57.921Z,24.20
2018-08-10T12:19:26.196Z,24.30
2018-08-10T12:21:54.459Z,24.40
2018-08-10T12:24:22.792Z,24.30
2018-08-10T12:26:51.073Z,24.20
2018-08-10T12:29:19.382Z,24.20
2018-08-10T12:31:47.695Z,23.90
2018-08-10T12:34:16.001Z,23.90
2018-08-10T12:36:44.981Z,23.90
2018-08-10T12:39:14.379Z,23.90
2018-08-10T12:41:42.810Z,23.90
2018-08-10T12:44:11.588Z,23.80
2018-08-10T12:46:39.987Z,23.70
2018-08-10T12:49:08.693Z,23.70
2018-08-10T12:51:41.001Z,23.80
2018-08-10T12:54:13.359Z,23.80
2018-08-10T12:56:41.681Z,23.80
2018-08-10T12:59:10.004Z,23.70
2018-08-10T13:01:38.354Z,23.70
2018-08-10T13:04:06.659Z,23.80
2018-08-10T13:06:34.932Z,23.80
2018-08-10T13:09:04.198Z,23.90
2018-08-10T13:11:32.515Z,23.90
2018-08-10T13:14:00.777Z,23.90
2018-08-10T13:16:29.163Z,23.90
2018-08-10T13:18:57.436Z,24.00
2018-08-10T13:21:25.738Z,24.00
2018-08-10T13:23:54.027Z,24.00
2018-08-10T13:26:22.393Z,23.90
2018-08-10T13:28:50.804Z,23.80
2018-08-10T13:31:19.135Z,23.70
2018-08-10T13:34:29.550Z,23.60
2018-08-10T13:36:57.988Z,23.60
2018-08-10T13:39:26.463Z,23.60
2018-08-10T13:41:54.907Z,23.60
2018-08-10T13:44:23.215Z,23.40
2018-08-10T13:46:51.531Z,23.40
2018-08-10T13:49:19.864Z,23.40
2018-08-10T13:51:48.193Z,23.40
2018-08-10T13:54:16.556Z,23.40
2018-08-10T13:56:44.859Z,23.40
2018-08-10T13:59:13.205Z,23.40
2018-08-10T14:01:41.598Z,23.50
2018-08-10T14:04:09.946Z,23.60
2018-08-10T14:06:38.325Z,23.60
2018-08-10T14:09:09.208Z,23.60
2018-08-10T14:11:37.760Z,23.60
2018-08-10T14:14:06.245Z,23.60
2018-08-10T14:16:35.090Z,23.60
2018-08-10T14:19:03.523Z,23.60
2018-08-10T14:21:31.849Z,23.60
2018-08-10T14:24:00.179Z,23.60
2018-08-10T14:26:30.589Z,23.60
2018-08-10T14:28:59.031Z,23.50
2018-08-10T14:31:27.567Z,23.50
2018-08-10T14:33:55.978Z,23.40
2018-08-10T14:36:24.502Z,23.50
2018-08-10T14:38:53.041Z,23.30
2018-08-10T14:41:21.445Z,23.30
2018-08-10T14:43:49.788Z,23.30
2018-08-10T14:46:18.189Z,23.30
2018-08-10T14:48:46.598Z,23.20
2018-08-10T14:51:14.951Z,23.10
2018-08-10T14:53:43.319Z,23.00
2018-08-10T14:56:11.646Z,23.00
2018-08-10T14:58:40.019Z,23.00
2018-08-10T15:01:08.522Z,23.10
2018-08-10T15:03:36.847Z,23.00
2018-08-10T15:06:05.200Z,23.00
2018-08-10T15:08:33.582Z,23.00
2018-08-10T15:11:01.922Z,22.90
2018-08-10T15:13:30.307Z,22.90
2018-08-10T15:15:58.790Z,23.00
2018-08-10T15:18:27.205Z,23.00
2018-08-10T15:20:55.592Z,23.10
2018-08-10T15:23:23.935Z,23.10
2018-08-10T15:25:52.276Z,23.00
2018-08-10T15:28:20.662Z,23.00
2018-08-10T15:30:49.046Z,23.00
2018-08-10T15:33:17.302Z,23.00
2018-08-10T15:35:45.659Z,23.10
2018-08-10T15:38:14.156Z,23.00
2018-08-10T15:40:42.439Z,22.90
2018-08-10T15:43:10.878Z,23.10
2018-08-10T15:45:39.223Z,23.20
2018-08-10T15:48:07.595Z,23.20
2018-08-10T15:50:36.095Z,23.10
2018-08-10T15:53:04.462Z,23.10
2018-08-10T15:55:33.010Z,23.20
2018-08-10T15:58:01.379Z,23.20
2018-08-10T16:00:29.719Z,23.30
2018-08-10T16:02:58.166Z,23.30
2018-08-10T16:05:26.532Z,23.40
2018-08-10T16:07:54.970Z,23.40
2018-08-10T16:10:23.319Z,23.40
2018-08-10T16:12:51.674Z,23.20
2018-08-10T16:15:19.991Z,23.10
2018-08-10T16:17:48.627Z,23.00
2018-08-10T16:20:19.518Z,23.00
2018-08-10T16:22:47.852Z,22.90
2018-08-10T16:25:16.196Z,23.00
2018-08-10T16:27:45.165Z,22.90
2018-08-10T16:30:15.041Z,22.90
2018-08-10T16:32:44.206Z,22.90
2018-08-10T16:35:13.559Z,23.00
2018-08-10T16:37:43.233Z,23.20
2018-08-10T16:40:13.299Z,23.30
2018-08-10T16:42:42.149Z,23.50
2018-08-10T16:45:10.936Z,23.50
2018-08-10T16:47:39.822Z,23.60
2018-08-10T16:50:11.462Z,23.60
2018-08-10T16:52:40.642Z,23.70
2018-08-10T16:55:11.215Z,23.70
2018-08-10T16:57:40.155Z,23.70
2018-08-10T17:00:10.013Z,24.00
2018-08-10T17:02:38.675Z,23.80
2018-08-10T17:05:08.018Z,23.80
2018-08-10T17:07:36.474Z,23.70
2018-08-10T17:10:06.200Z,23.70
2018-08-10T17:12:35.485Z,23.70
2018-08-10T17:15:05.757Z,23.70
2018-08-10T17:17:34.186Z,23.60
2018-08-10T17:20:02.548Z,23.60
2018-08-10T17:22:30.933Z,23.70
2018-08-10T17:24:59.345Z,23.60
2018-08-10T17:27:27.691Z,23.70
2018-08-10T17:29:56.106Z,23.60
2018-08-10T17:32:24.484Z,23.50
2018-08-10T17:34:52.883Z,23.50
2018-08-10T17:37:21.255Z,23.40
2018-08-10T17:39:49.617Z,23.50
2018-08-10T17:42:17.949Z,23.50
2018-08-10T17:44:46.990Z,23.50
2018-08-10T17:47:15.809Z,23.60
2018-08-10T17:49:44.487Z,23.60
2018-08-10T17:52:13.151Z,23.50
2018-08-10T17:54:41.579Z,23.60
2018-08-10T17:57:10.384Z,23.60
2018-08-10T17:59:38.765Z,23.60
2018-08-10T18:02:07.292Z,23.60
2018-08-10T18:04:35.664Z,23.60
2018-08-10T18:07:04.538Z,23.60
2018-08-10T18:09:32.894Z,23.40
2018-08-10T18:12:01.275Z,23.30
2018-08-10T18:14:29.636Z,23.20
2018-08-10T18:16:58.270Z,23.20
2018-08-10T18:19:26.588Z,23.30
2018-08-10T18:21:55.217Z,23.30
2018-08-10T18:24:23.978Z,23.30
2018-08-10T18:26:52.942Z,23.30
2018-08-10T18:29:21.472Z,23.30
2018-08-10T18:31:50.095Z,23.30
2018-08-10T18:34:18.590Z,23.20
2018-08-10T18:36:47.229Z,23.20
2018-08-10T18:39:15.956Z,23.20
2018-08-10T18:41:45.352Z,23.20
2018-08-10T18:44:14.067Z,23.20
2018-08-10T18:46:42.458Z,23.10
2018-08-10T18:49:10.790Z,23.10
2018-08-10T18:51:40.048Z,23.10
2018-08-10T18:54:08.453Z,23.00
2018-08-10T18:56:37.280Z,22.90
2018-08-10T18:59:06.063Z,22.80
2018-08-10T19:01:34.749Z,22.90
2018-08-10T19:04:03.048Z,22.90
2018-08-10T19:06:31.597Z,22.80
2018-08-10T19:09:00.688Z,22.80
2018-08-10T19:24:29.081Z,22.90
2018-08-10T19:26:57.684Z,22.90
2018-08-10T19:29:26.060Z,23.10
2018-08-10T19:31:54.716Z,23.00
2018-08-10T19:34:23.141Z,23.10
2018-08-10T19:36:51.533Z,23.10
2018-08-10T19:39:20.321Z,23.10
2018-08-10T19:41:49.016Z,23.10
2018-08-10T19:44:17.389Z,23.10
2018-08-10T19:46:45.799Z,23.20
2018-08-10T19:49:14.405Z,23.10
2018-08-10T19:51:42.802Z,23.10
2018-08-10T19:54:11.246Z,23.10
2018-08-10T19:56:39.583Z,23.20
2018-08-10T19:59:08.029Z,23.30
2018-08-10T20:01:36.469Z,23.40
2018-08-10T20:04:05.071Z,23.40
2018-08-10T20:06:33.510Z,23.50
2018-08-10T20:09:02.611Z,23.50
2018-08-10T20:11:31.114Z,23.60
2018-08-10T20:13:59.894Z,23.60
2018-08-10T20:16:28.301Z,23.60
2018-08-10T20:18:56.741Z,23.60
2018-08-10T20:21:25.317Z,23.70
2018-08-10T20:23:53.753Z,23.50
2018-08-10T20:26:22.241Z,23.50
2018-08-10T20:28:51.180Z,23.40
2018-08-10T20:31:20.156Z,23.30
2018-08-10T20:33:48.722Z,23.30
2018-08-10T20:36:17.187Z,23.20
2018-08-10T20:38:45.639Z,23.20
2018-08-10T20:41:14.072Z,23.10
2018-08-10T20:43:42.459Z,23.20
2018-08-10T20:46:10.884Z,23.20
2018-08-10T20:48:39.294Z,23.20
2018-08-10T20:51:07.705Z,23.20
2018-08-10T20:53:36.110Z,23.20
2018-08-10T20:56:04.625Z,23.20
2018-08-10T20:58:33.129Z,23.20
2018-08-10T21:01:01.478Z,23.20
2018-08-10T21:03:30.042Z,23.10
2018-08-10T21:05:58.534Z,23.10
2018-08-10T21:08:27.130Z,23.10
2018-08-10T21:10:55.531Z,23.10
2018-08-10T21:13:23.922Z,23.10
2018-08-10T21:15:52.335Z,23.10
2018-08-10T21:18:20.660Z,22.90
2018-08-10T21:20:48.990Z,22.70
2018-08-10T21:23:17.372Z,22.50
2018-08-10T21:25:45.731Z,22.30
2018-08-10T21:28:15.150Z,22.20
2018-08-10T21:30:43.444Z,22.20
2018-08-10T21:33:11.750Z,22.20
2018-08-10T21:35:40.094Z,22.00
2018-08-10T21:38:08.509Z,21.80
2018-08-10T21:40:36.820Z,21.50
2018-08-10T21:43:05.305Z,21.40
2018-08-10T21:45:33.649Z,21.50
2018-08-10T21:48:01.927Z,21.40
2018-08-10T21:50:30.184Z,21.30
2018-08-10T21:52:58.509Z,21.20
2018-08-10T21:55:26.833Z,21.20
2018-08-10T21:57:55.261Z,21.20
2018-08-10T22:01:08.622Z,21.20
2018-08-10T22:03:37.294Z,21.10
2018-08-10T22:06:05.863Z,21.20
2018-08-10T22:08:34.174Z,21.20
2018-08-10T22:11:02.491Z,21.10
2018-08-10T22:13:36.397Z,21.00
2018-08-10T22:16:10.158Z,21.10
2018-08-10T22:18:43.693Z,21.40
2018-08-10T22:21:12.004Z,21.80
2018-08-10T22:23:40.282Z,22.00
2018-08-10T22:26:08.644Z,22.20
2018-08-10T22:28:36.931Z,22.40
2018-08-10T22:31:05.275Z,22.40
2018-08-10T22:33:33.548Z,22.50
2018-08-10T22:36:01.842Z,22.60
2018-08-10T22:38:30.160Z,22.60
2018-08-10T22:40:58.442Z,22.70
2018-08-10T22:43:26.742Z,22.70
2018-08-10T22:45:55.043Z,22.70
2018-08-10T22:48:23.350Z,22.80
2018-08-10T22:50:51.682Z,22.90
2018-08-10T22:53:20.036Z,22.80
2018-08-10T22:55:48.423Z,22.80
2018-08-10T22:58:16.749Z,22.90
2018-08-10T23:00:45.085Z,22.90
2018-08-10T23:03:13.618Z,23.00
2018-08-10T23:05:41.852Z,23.00
2018-08-10T23:08:10.402Z,23.00
2018-08-10T23:10:38.695Z,23.00
2018-08-10T23:13:07.032Z,23.00
2018-08-10T23:15:35.371Z,23.00
2018-08-10T23:18:03.975Z,23.00
2018-08-10T23:20:32.434Z,23.00
2018-08-10T23:23:00.829Z,23.00
2018-08-10T23:25:29.328Z,23.00
2018-08-10T23:27:57.717Z,23.00
2018-08-10T23:30:26.091Z,23.10
2018-08-10T23:32:54.436Z,23.10
2018-08-10T23:35:22.767Z,23.10
2018-08-10T23:37:51.141Z,23.10
2018-08-10T23:40:19.457Z,23.10
2018-08-10T23:42:47.822Z,23.10
2018-08-10T23:45:16.220Z,23.00
2018-08-10T23:47:44.985Z,23.10
2018-08-10T23:50:16.403Z,23.10
2018-08-10T23:52:45.210Z,23.10
2018-08-10T23:55:18.651Z,22.60
2018-08-10T23:57:47.550Z,23.10
